sensor_id;sensor_type;location;lat;lon;timestamp;P1;durP1;ratioP1;P2;durP2;ratioP2
47251;SDS011;32991;51.374;11.586;2024-03-08T00:02:16;38.60;;;18.40;;
47251;SDS011;32991;51.374;11.586;2024-03-08T00:04:43;38.53;;;18.33;;
47251;SDS011;32991;51.374;11.586;2024-03-08T00:07:11;39.95;;;18.05;;
47251;SDS011;32991;51.374;11.586;2024-03-08T00:09:37;35.30;;;17.45;;
47251;SDS011;32991;51.374;11.586;2024-03-08T00:12:04;46.83;;;18.50;;
47251;SDS011;32991;51.374;11.586;2024-03-08T00:14:31;38.25;;;18.20;;
47251;SDS011;32991;51.374;11.586;2024-03-08T00:16:57;36.33;;;17.60;;
47251;SDS011;32991;51.374;11.586;2024-03-08T00:19:24;38.25;;;17.65;;
47251;SDS011;32991;51.374;11.586;2024-03-08T00:21:50;38.15;;;18.00;;
47251;SDS011;32991;51.374;11.586;2024-03-08T00:24:17;36.08;;;17.30;;
47251;SDS011;32991;51.374;11.586;2024-03-08T00:26:43;40.60;;;18.58;;
47251;SDS011;32991;51.374;11.586;2024-03-08T00:29:10;34.00;;;16.65;;
47251;SDS011;32991;51.374;11.586;2024-03-08T00:31:37;41.88;;;18.73;;
47251;SDS011;32991;51.374;11.586;2024-03-08T00:34:03;39.83;;;17.77;;
47251;SDS011;32991;51.374;11.586;2024-03-08T00:36:30;42.05;;;19.23;;
47251;SDS011;32991;51.374;11.586;2024-03-08T00:38:56;51.95;;;18.95;;
47251;SDS011;32991;51.374;11.586;2024-03-08T00:41:23;39.78;;;19.02;;
47251;SDS011;32991;51.374;11.586;2024-03-08T00:43:52;41.55;;;18.63;;
47251;SDS011;32991;51.374;11.586;2024-03-08T00:46:19;36.97;;;18.75;;
47251;SDS011;32991;51.374;11.586;2024-03-08T00:48:46;42.15;;;17.88;;
47251;SDS011;32991;51.374;11.586;2024-03-08T00:51:13;42.47;;;20.52;;
47251;SDS011;32991;51.374;11.586;2024-03-08T00:53:41;40.50;;;20.92;;
47251;SDS011;32991;51.374;11.586;2024-03-08T00:56:09;39.40;;;19.13;;
47251;SDS011;32991;51.374;11.586;2024-03-08T00:58:36;42.97;;;20.80;;
47251;SDS011;32991;51.374;11.586;2024-03-08T01:01:03;44.42;;;19.52;;
47251;SDS011;32991;51.374;11.586;2024-03-08T01:03:31;39.03;;;19.42;;
47251;SDS011;32991;51.374;11.586;2024-03-08T01:05:59;37.85;;;19.17;;
47251;SDS011;32991;51.374;11.586;2024-03-08T01:08:27;40.20;;;18.05;;
47251;SDS011;32991;51.374;11.586;2024-03-08T01:10:54;35.15;;;16.00;;
47251;SDS011;32991;51.374;11.586;2024-03-08T01:13:21;34.55;;;15.93;;
47251;SDS011;32991;51.374;11.586;2024-03-08T01:15:47;40.88;;;17.17;;
47251;SDS011;32991;51.374;11.586;2024-03-08T01:18:14;44.45;;;18.40;;
47251;SDS011;32991;51.374;11.586;2024-03-08T01:20:41;48.22;;;20.50;;
47251;SDS011;32991;51.374;11.586;2024-03-08T01:23:08;39.53;;;20.15;;
47251;SDS011;32991;51.374;11.586;2024-03-08T01:25:34;41.10;;;16.95;;
47251;SDS011;32991;51.374;11.586;2024-03-08T01:28:01;40.63;;;18.60;;
47251;SDS011;32991;51.374;11.586;2024-03-08T01:30:28;42.40;;;17.80;;
47251;SDS011;32991;51.374;11.586;2024-03-08T01:32:55;35.33;;;16.25;;
47251;SDS011;32991;51.374;11.586;2024-03-08T01:35:22;39.50;;;17.77;;
47251;SDS011;32991;51.374;11.586;2024-03-08T01:37:49;31.80;;;14.52;;
47251;SDS011;32991;51.374;11.586;2024-03-08T01:40:16;38.65;;;17.98;;
47251;SDS011;32991;51.374;11.586;2024-03-08T01:42:43;36.20;;;17.60;;
47251;SDS011;32991;51.374;11.586;2024-03-08T01:45:11;40.03;;;17.73;;
47251;SDS011;32991;51.374;11.586;2024-03-08T01:47:38;41.47;;;18.80;;
47251;SDS011;32991;51.374;11.586;2024-03-08T01:50:06;41.92;;;18.55;;
47251;SDS011;32991;51.374;11.586;2024-03-08T01:52:33;43.17;;;20.00;;
47251;SDS011;32991;51.374;11.586;2024-03-08T01:55:00;43.28;;;18.67;;
47251;SDS011;32991;51.374;11.586;2024-03-08T01:57:31;37.45;;;17.95;;
47251;SDS011;32991;51.374;11.586;2024-03-08T01:59:57;39.95;;;16.92;;
47251;SDS011;32991;51.374;11.586;2024-03-08T02:02:24;37.83;;;17.92;;
47251;SDS011;32991;51.374;11.586;2024-03-08T02:04:51;45.92;;;18.63;;
47251;SDS011;32991;51.374;11.586;2024-03-08T02:07:19;37.17;;;17.15;;
47251;SDS011;32991;51.374;11.586;2024-03-08T02:09:46;43.70;;;18.02;;
47251;SDS011;32991;51.374;11.586;2024-03-08T02:12:12;35.72;;;17.58;;
47251;SDS011;32991;51.374;11.586;2024-03-08T02:14:40;39.55;;;18.85;;
47251;SDS011;32991;51.374;11.586;2024-03-08T02:17:07;42.88;;;18.40;;
47251;SDS011;32991;51.374;11.586;2024-03-08T02:19:34;42.28;;;18.65;;
47251;SDS011;32991;51.374;11.586;2024-03-08T02:22:02;37.97;;;17.15;;
47251;SDS011;32991;51.374;11.586;2024-03-08T02:24:31;35.67;;;16.42;;
47251;SDS011;32991;51.374;11.586;2024-03-08T02:26:58;41.35;;;17.48;;
47251;SDS011;32991;51.374;11.586;2024-03-08T02:29:25;37.10;;;18.42;;
47251;SDS011;32991;51.374;11.586;2024-03-08T02:31:52;41.67;;;18.30;;
47251;SDS011;32991;51.374;11.586;2024-03-08T02:34:18;46.63;;;19.80;;
47251;SDS011;32991;51.374;11.586;2024-03-08T02:36:46;41.85;;;19.35;;
47251;SDS011;32991;51.374;11.586;2024-03-08T02:39:13;49.03;;;19.38;;
47251;SDS011;32991;51.374;11.586;2024-03-08T02:41:40;37.85;;;19.00;;
47251;SDS011;32991;51.374;11.586;2024-03-08T02:44:06;39.20;;;18.85;;
47251;SDS011;32991;51.374;11.586;2024-03-08T02:46:33;43.72;;;19.05;;
47251;SDS011;32991;51.374;11.586;2024-03-08T02:49:02;52.08;;;19.30;;
47251;SDS011;32991;51.374;11.586;2024-03-08T02:51:28;44.90;;;18.90;;
47251;SDS011;32991;51.374;11.586;2024-03-08T02:53:55;45.55;;;19.38;;
47251;SDS011;32991;51.374;11.586;2024-03-08T02:56:22;42.80;;;18.88;;
47251;SDS011;32991;51.374;11.586;2024-03-08T02:58:48;40.65;;;19.55;;
47251;SDS011;32991;51.374;11.586;2024-03-08T03:01:15;42.85;;;18.85;;
47251;SDS011;32991;51.374;11.586;2024-03-08T03:03:42;40.83;;;19.23;;
47251;SDS011;32991;51.374;11.586;2024-03-08T03:06:09;41.08;;;19.10;;
47251;SDS011;32991;51.374;11.586;2024-03-08T03:08:36;47.05;;;18.98;;
47251;SDS011;32991;51.374;11.586;2024-03-08T03:11:03;52.78;;;18.90;;
47251;SDS011;32991;51.374;11.586;2024-03-08T03:13:29;44.63;;;18.23;;
47251;SDS011;32991;51.374;11.586;2024-03-08T03:15:56;42.50;;;18.83;;
47251;SDS011;32991;51.374;11.586;2024-03-08T03:18:24;41.88;;;19.70;;
47251;SDS011;32991;51.374;11.586;2024-03-08T03:20:52;38.42;;;18.95;;
47251;SDS011;32991;51.374;11.586;2024-03-08T03:23:19;37.83;;;18.05;;
47251;SDS011;32991;51.374;11.586;2024-03-08T03:25:47;42.83;;;18.92;;
47251;SDS011;32991;51.374;11.586;2024-03-08T03:28:13;38.28;;;17.98;;
47251;SDS011;32991;51.374;11.586;2024-03-08T03:30:45;45.85;;;18.85;;
47251;SDS011;32991;51.374;11.586;2024-03-08T03:33:13;41.47;;;18.00;;
47251;SDS011;32991;51.374;11.586;2024-03-08T03:35:42;44.47;;;19.73;;
47251;SDS011;32991;51.374;11.586;2024-03-08T03:38:11;44.85;;;19.27;;
47251;SDS011;32991;51.374;11.586;2024-03-08T03:40:38;39.58;;;18.15;;
47251;SDS011;32991;51.374;11.586;2024-03-08T03:43:07;40.13;;;19.58;;
47251;SDS011;32991;51.374;11.586;2024-03-08T03:45:34;44.63;;;18.90;;
47251;SDS011;32991;51.374;11.586;2024-03-08T03:48:03;46.83;;;19.10;;
47251;SDS011;32991;51.374;11.586;2024-03-08T03:50:31;49.17;;;18.90;;
47251;SDS011;32991;51.374;11.586;2024-03-08T03:53:01;40.33;;;19.17;;
47251;SDS011;32991;51.374;11.586;2024-03-08T03:55:29;37.08;;;17.20;;
47251;SDS011;32991;51.374;11.586;2024-03-08T03:57:55;44.22;;;20.02;;
47251;SDS011;32991;51.374;11.586;2024-03-08T04:00:22;39.80;;;17.93;;
47251;SDS011;32991;51.374;11.586;2024-03-08T04:02:49;43.53;;;20.45;;
47251;SDS011;32991;51.374;11.586;2024-03-08T04:05:17;43.47;;;19.67;;
47251;SDS011;32991;51.374;11.586;2024-03-08T04:07:44;49.72;;;19.30;;
47251;SDS011;32991;51.374;11.586;2024-03-08T04:10:11;53.30;;;19.13;;
47251;SDS011;32991;51.374;11.586;2024-03-08T04:12:37;41.43;;;20.10;;
47251;SDS011;32991;51.374;11.586;2024-03-08T04:15:04;43.73;;;18.07;;
47251;SDS011;32991;51.374;11.586;2024-03-08T04:17:34;44.97;;;19.07;;
47251;SDS011;32991;51.374;11.586;2024-03-08T04:20:06;37.67;;;17.53;;
47251;SDS011;32991;51.374;11.586;2024-03-08T04:22:37;39.77;;;18.03;;
47251;SDS011;32991;51.374;11.586;2024-03-08T04:25:04;41.65;;;18.10;;
47251;SDS011;32991;51.374;11.586;2024-03-08T04:27:32;43.80;;;19.37;;
47251;SDS011;32991;51.374;11.586;2024-03-08T04:30:00;43.17;;;18.13;;
47251;SDS011;32991;51.374;11.586;2024-03-08T04:32:27;38.20;;;18.00;;
47251;SDS011;32991;51.374;11.586;2024-03-08T04:34:56;42.17;;;19.20;;
47251;SDS011;32991;51.374;11.586;2024-03-08T04:37:23;48.67;;;20.00;;
47251;SDS011;32991;51.374;11.586;2024-03-08T04:39:51;47.13;;;20.70;;
47251;SDS011;32991;51.374;11.586;2024-03-08T04:42:17;35.67;;;14.30;;
47251;SDS011;32991;51.374;11.586;2024-03-08T04:44:45;42.17;;;18.83;;
47251;SDS011;32991;51.374;11.586;2024-03-08T04:47:11;40.67;;;15.93;;
47251;SDS011;32991;51.374;11.586;2024-03-08T04:49:38;41.60;;;18.50;;
47251;SDS011;32991;51.374;11.586;2024-03-08T04:52:05;42.50;;;17.80;;
47251;SDS011;32991;51.374;11.586;2024-03-08T04:54:31;43.63;;;20.33;;
47251;SDS011;32991;51.374;11.586;2024-03-08T04:56:58;44.27;;;20.57;;
47251;SDS011;32991;51.374;11.586;2024-03-08T04:59:32;39.03;;;17.02;;
47251;SDS011;32991;51.374;11.586;2024-03-08T05:01:58;39.67;;;19.30;;
47251;SDS011;32991;51.374;11.586;2024-03-08T05:04:25;42.53;;;18.67;;
47251;SDS011;32991;51.374;11.586;2024-03-08T05:06:52;39.10;;;18.63;;
47251;SDS011;32991;51.374;11.586;2024-03-08T05:09:20;44.67;;;20.50;;
47251;SDS011;32991;51.374;11.586;2024-03-08T05:11:46;47.27;;;19.67;;
47251;SDS011;32991;51.374;11.586;2024-03-08T05:14:14;48.53;;;19.47;;
47251;SDS011;32991;51.374;11.586;2024-03-08T05:16:46;49.97;;;19.70;;
47251;SDS011;32991;51.374;11.586;2024-03-08T05:19:16;45.33;;;18.13;;
47251;SDS011;32991;51.374;11.586;2024-03-08T05:21:43;55.87;;;19.07;;
47251;SDS011;32991;51.374;11.586;2024-03-08T05:24:11;41.17;;;17.33;;
47251;SDS011;32991;51.374;11.586;2024-03-08T05:26:39;44.00;;;18.00;;
47251;SDS011;32991;51.374;11.586;2024-03-08T05:29:06;47.27;;;20.37;;
47251;SDS011;32991;51.374;11.586;2024-03-08T05:31:35;43.33;;;19.27;;
47251;SDS011;32991;51.374;11.586;2024-03-08T05:34:05;43.07;;;19.40;;
47251;SDS011;32991;51.374;11.586;2024-03-08T05:36:32;46.00;;;20.37;;
47251;SDS011;32991;51.374;11.586;2024-03-08T05:38:58;41.67;;;20.57;;
47251;SDS011;32991;51.374;11.586;2024-03-08T05:41:25;46.33;;;20.63;;
47251;SDS011;32991;51.374;11.586;2024-03-08T05:43:51;43.23;;;18.80;;
47251;SDS011;32991;51.374;11.586;2024-03-08T05:46:18;46.10;;;19.03;;
47251;SDS011;32991;51.374;11.586;2024-03-08T05:48:45;43.87;;;19.70;;
47251;SDS011;32991;51.374;11.586;2024-03-08T05:51:11;44.40;;;18.93;;
47251;SDS011;32991;51.374;11.586;2024-03-08T05:53:38;43.60;;;20.83;;
47251;SDS011;32991;51.374;11.586;2024-03-08T05:56:05;47.07;;;21.13;;
47251;SDS011;32991;51.374;11.586;2024-03-08T05:58:32;48.87;;;20.30;;
47251;SDS011;32991;51.374;11.586;2024-03-08T06:00:58;52.17;;;20.47;;
47251;SDS011;32991;51.374;11.586;2024-03-08T06:03:25;50.27;;;20.27;;
47251;SDS011;32991;51.374;11.586;2024-03-08T06:05:52;45.13;;;20.60;;
47251;SDS011;32991;51.374;11.586;2024-03-08T06:08:23;50.20;;;20.70;;
47251;SDS011;32991;51.374;11.586;2024-03-08T06:10:49;40.43;;;18.80;;
47251;SDS011;32991;51.374;11.586;2024-03-08T06:13:19;46.30;;;19.73;;
47251;SDS011;32991;51.374;11.586;2024-03-08T06:15:45;48.07;;;21.00;;
47251;SDS011;32991;51.374;11.586;2024-03-08T06:18:12;51.85;;;21.75;;
47251;SDS011;32991;51.374;11.586;2024-03-08T06:20:38;47.67;;;21.27;;
47251;SDS011;32991;51.374;11.586;2024-03-08T06:23:05;53.92;;;22.17;;
47251;SDS011;32991;51.374;11.586;2024-03-08T06:25:32;44.03;;;20.30;;
47251;SDS011;32991;51.374;11.586;2024-03-08T06:27:58;47.85;;;20.60;;
47251;SDS011;32991;51.374;11.586;2024-03-08T06:30:25;45.65;;;19.40;;
47251;SDS011;32991;51.374;11.586;2024-03-08T06:32:51;46.55;;;20.73;;
47251;SDS011;32991;51.374;11.586;2024-03-08T06:35:18;45.53;;;20.70;;
47251;SDS011;32991;51.374;11.586;2024-03-08T06:37:46;44.55;;;20.02;;
47251;SDS011;32991;51.374;11.586;2024-03-08T06:40:13;41.90;;;19.65;;
47251;SDS011;32991;51.374;11.586;2024-03-08T06:42:40;39.15;;;19.27;;
47251;SDS011;32991;51.374;11.586;2024-03-08T06:45:08;42.58;;;20.23;;
47251;SDS011;32991;51.374;11.586;2024-03-08T06:47:36;49.53;;;22.48;;
47251;SDS011;32991;51.374;11.586;2024-03-08T06:50:03;42.25;;;20.02;;
47251;SDS011;32991;51.374;11.586;2024-03-08T06:52:30;43.08;;;19.50;;
47251;SDS011;32991;51.374;11.586;2024-03-08T06:54:57;46.25;;;21.15;;
47251;SDS011;32991;51.374;11.586;2024-03-08T06:57:24;42.25;;;21.10;;
47251;SDS011;32991;51.374;11.586;2024-03-08T06:59:51;38.28;;;22.30;;
47251;SDS011;32991;51.374;11.586;2024-03-08T07:02:18;33.47;;;20.63;;
47251;SDS011;32991;51.374;11.586;2024-03-08T07:04:45;41.20;;;23.77;;
47251;SDS011;32991;51.374;11.586;2024-03-08T07:07:12;38.63;;;22.13;;
47251;SDS011;32991;51.374;11.586;2024-03-08T07:09:38;38.72;;;22.08;;
47251;SDS011;32991;51.374;11.586;2024-03-08T07:12:05;41.70;;;23.25;;
47251;SDS011;32991;51.374;11.586;2024-03-08T07:14:32;39.78;;;23.95;;
47251;SDS011;32991;51.374;11.586;2024-03-08T07:16:59;47.35;;;25.08;;
47251;SDS011;32991;51.374;11.586;2024-03-08T07:19:28;40.90;;;28.90;;
47251;SDS011;32991;51.374;11.586;2024-03-08T07:21:55;38.33;;;31.45;;
47251;SDS011;32991;51.374;11.586;2024-03-08T07:24:21;38.33;;;30.13;;
47251;SDS011;32991;51.374;11.586;2024-03-08T07:26:54;40.47;;;31.48;;
47251;SDS011;32991;51.374;11.586;2024-03-08T07:29:22;42.83;;;31.80;;
47251;SDS011;32991;51.374;11.586;2024-03-08T07:31:49;39.80;;;30.75;;
47251;SDS011;32991;51.374;11.586;2024-03-08T07:34:28;44.85;;;30.88;;
47251;SDS011;32991;51.374;11.586;2024-03-08T07:36:58;37.88;;;31.00;;
47251;SDS011;32991;51.374;11.586;2024-03-08T07:39:25;40.55;;;31.42;;
47251;SDS011;32991;51.374;11.586;2024-03-08T07:41:52;37.33;;;30.05;;
47251;SDS011;32991;51.374;11.586;2024-03-08T07:44:19;37.53;;;30.77;;
47251;SDS011;32991;51.374;11.586;2024-03-08T07:46:46;40.75;;;31.83;;
47251;SDS011;32991;51.374;11.586;2024-03-08T07:49:14;40.38;;;31.77;;
47251;SDS011;32991;51.374;11.586;2024-03-08T07:51:41;39.55;;;31.88;;
47251;SDS011;32991;51.374;11.586;2024-03-08T07:54:13;39.17;;;30.85;;
47251;SDS011;32991;51.374;11.586;2024-03-08T07:56:39;41.08;;;32.65;;
47251;SDS011;32991;51.374;11.586;2024-03-08T07:59:06;39.17;;;32.10;;
47251;SDS011;32991;51.374;11.586;2024-03-08T08:01:33;39.40;;;30.20;;
47251;SDS011;32991;51.374;11.586;2024-03-08T08:04:00;39.83;;;30.23;;
47251;SDS011;32991;51.374;11.586;2024-03-08T08:06:29;35.85;;;30.60;;
47251;SDS011;32991;51.374;11.586;2024-03-08T08:08:59;36.47;;;30.02;;
47251;SDS011;32991;51.374;11.586;2024-03-08T08:11:27;35.97;;;29.80;;
47251;SDS011;32991;51.374;11.586;2024-03-08T08:13:57;36.75;;;29.88;;
47251;SDS011;32991;51.374;11.586;2024-03-08T08:16:23;35.30;;;29.42;;
47251;SDS011;32991;51.374;11.586;2024-03-08T08:18:52;39.22;;;31.13;;
47251;SDS011;32991;51.374;11.586;2024-03-08T08:21:19;39.28;;;30.42;;
47251;SDS011;32991;51.374;11.586;2024-03-08T08:23:45;37.65;;;29.40;;
47251;SDS011;32991;51.374;11.586;2024-03-08T08:26:12;38.83;;;29.55;;
47251;SDS011;32991;51.374;11.586;2024-03-08T08:28:39;35.00;;;29.23;;
47251;SDS011;32991;51.374;11.586;2024-03-08T08:31:07;40.08;;;30.92;;
47251;SDS011;32991;51.374;11.586;2024-03-08T08:33:34;38.08;;;29.73;;
47251;SDS011;32991;51.374;11.586;2024-03-08T08:36:01;38.97;;;30.50;;
47251;SDS011;32991;51.374;11.586;2024-03-08T08:38:29;40.15;;;30.15;;
47251;SDS011;32991;51.374;11.586;2024-03-08T08:40:56;36.30;;;29.88;;
47251;SDS011;32991;51.374;11.586;2024-03-08T08:43:23;37.67;;;31.00;;
47251;SDS011;32991;51.374;11.586;2024-03-08T08:45:51;37.08;;;29.42;;
47251;SDS011;32991;51.374;11.586;2024-03-08T08:48:21;35.20;;;28.75;;
47251;SDS011;32991;51.374;11.586;2024-03-08T08:50:47;37.90;;;28.77;;
47251;SDS011;32991;51.374;11.586;2024-03-08T08:53:14;41.35;;;30.52;;
47251;SDS011;32991;51.374;11.586;2024-03-08T08:55:41;35.83;;;30.70;;
47251;SDS011;32991;51.374;11.586;2024-03-08T08:58:07;38.60;;;28.20;;
47251;SDS011;32991;51.374;11.586;2024-03-08T09:00:34;38.08;;;30.52;;
47251;SDS011;32991;51.374;11.586;2024-03-08T09:03:01;36.55;;;29.30;;
47251;SDS011;32991;51.374;11.586;2024-03-08T09:05:28;34.78;;;28.73;;
47251;SDS011;32991;51.374;11.586;2024-03-08T09:07:55;35.17;;;28.02;;
47251;SDS011;32991;51.374;11.586;2024-03-08T09:10:22;34.10;;;28.73;;
47251;SDS011;32991;51.374;11.586;2024-03-08T09:12:54;33.55;;;28.20;;
47251;SDS011;32991;51.374;11.586;2024-03-08T09:15:21;34.72;;;28.52;;
47251;SDS011;32991;51.374;11.586;2024-03-08T09:17:48;36.22;;;29.30;;
47251;SDS011;32991;51.374;11.586;2024-03-08T09:20:15;34.28;;;28.27;;
47251;SDS011;32991;51.374;11.586;2024-03-08T09:22:45;36.15;;;28.20;;
47251;SDS011;32991;51.374;11.586;2024-03-08T09:25:12;34.88;;;28.75;;
47251;SDS011;32991;51.374;11.586;2024-03-08T09:27:39;34.47;;;28.80;;
47251;SDS011;32991;51.374;11.586;2024-03-08T09:30:06;36.17;;;27.88;;
47251;SDS011;32991;51.374;11.586;2024-03-08T09:32:34;36.88;;;29.45;;
47251;SDS011;32991;51.374;11.586;2024-03-08T09:35:01;36.25;;;29.05;;
47251;SDS011;32991;51.374;11.586;2024-03-08T09:37:28;37.28;;;29.33;;
47251;SDS011;32991;51.374;11.586;2024-03-08T09:39:54;36.83;;;29.23;;
47251;SDS011;32991;51.374;11.586;2024-03-08T09:42:21;34.38;;;28.48;;
47251;SDS011;32991;51.374;11.586;2024-03-08T09:44:48;36.17;;;29.70;;
47251;SDS011;32991;51.374;11.586;2024-03-08T09:47:15;38.28;;;28.95;;
47251;SDS011;32991;51.374;11.586;2024-03-08T09:49:42;35.35;;;28.90;;
47251;SDS011;32991;51.374;11.586;2024-03-08T09:52:10;39.85;;;30.98;;
47251;SDS011;32991;51.374;11.586;2024-03-08T09:54:37;38.38;;;30.13;;
47251;SDS011;32991;51.374;11.586;2024-03-08T09:57:04;39.20;;;30.15;;
47251;SDS011;32991;51.374;11.586;2024-03-08T09:59:30;35.20;;;28.00;;
47251;SDS011;32991;51.374;11.586;2024-03-08T10:02:03;36.00;;;30.02;;
47251;SDS011;32991;51.374;11.586;2024-03-08T10:04:31;36.08;;;29.48;;
47251;SDS011;32991;51.374;11.586;2024-03-08T10:07:00;37.60;;;29.02;;
47251;SDS011;32991;51.374;11.586;2024-03-08T10:09:28;39.65;;;30.60;;
47251;SDS011;32991;51.374;11.586;2024-03-08T10:11:57;37.30;;;30.50;;
47251;SDS011;32991;51.374;11.586;2024-03-08T10:14:25;36.88;;;28.85;;
47251;SDS011;32991;51.374;11.586;2024-03-08T10:16:55;39.38;;;27.88;;
47251;SDS011;32991;51.374;11.586;2024-03-08T10:19:26;36.08;;;28.35;;
47251;SDS011;32991;51.374;11.586;2024-03-08T10:21:56;35.58;;;29.80;;
47251;SDS011;32991;51.374;11.586;2024-03-08T10:24:25;33.65;;;27.92;;
47251;SDS011;32991;51.374;11.586;2024-03-08T10:27:01;36.40;;;29.23;;
47251;SDS011;32991;51.374;11.586;2024-03-08T10:29:31;37.13;;;29.02;;
47251;SDS011;32991;51.374;11.586;2024-03-08T10:31:58;35.05;;;28.70;;
47251;SDS011;32991;51.374;11.586;2024-03-08T10:34:25;38.45;;;28.55;;
47251;SDS011;32991;51.374;11.586;2024-03-08T10:36:52;37.47;;;28.73;;
47251;SDS011;32991;51.374;11.586;2024-03-08T10:39:22;35.03;;;28.63;;
47251;SDS011;32991;51.374;11.586;2024-03-08T10:41:56;34.55;;;26.75;;
47251;SDS011;32991;51.374;11.586;2024-03-08T10:49:54;35.65;;;28.25;;
47251;SDS011;32991;51.374;11.586;2024-03-08T10:52:23;35.40;;;27.55;;
47251;SDS011;32991;51.374;11.586;2024-03-08T10:54:50;32.25;;;25.73;;
47251;SDS011;32991;51.374;11.586;2024-03-08T10:57:19;36.42;;;26.25;;
47251;SDS011;32991;51.374;11.586;2024-03-08T10:59:47;32.97;;;26.17;;
47251;SDS011;32991;51.374;11.586;2024-03-08T11:02:16;31.65;;;25.98;;
47251;SDS011;32991;51.374;11.586;2024-03-08T11:04:45;35.30;;;27.13;;
47251;SDS011;32991;51.374;11.586;2024-03-08T11:07:16;34.30;;;26.70;;
47251;SDS011;32991;51.374;11.586;2024-03-08T11:09:47;34.17;;;26.38;;
47251;SDS011;32991;51.374;11.586;2024-03-08T11:12:24;34.10;;;26.60;;
47251;SDS011;32991;51.374;11.586;2024-03-08T11:14:59;33.85;;;25.42;;
47251;SDS011;32991;51.374;11.586;2024-03-08T11:19:57;30.85;;;25.38;;
47251;SDS011;32991;51.374;11.586;2024-03-08T11:22:28;33.38;;;25.75;;
47251;SDS011;32991;51.374;11.586;2024-03-08T11:25:04;30.88;;;25.20;;
47251;SDS011;32991;51.374;11.586;2024-03-08T11:27:36;32.42;;;26.20;;
47251;SDS011;32991;51.374;11.586;2024-03-08T11:30:04;34.58;;;27.23;;
47251;SDS011;32991;51.374;11.586;2024-03-08T11:32:44;38.92;;;26.80;;
47251;SDS011;32991;51.374;11.586;2024-03-08T11:35:22;31.38;;;25.98;;
47251;SDS011;32991;51.374;11.586;2024-03-08T11:37:51;34.72;;;24.48;;
47251;SDS011;32991;51.374;11.586;2024-03-08T11:40:18;33.97;;;25.42;;
47251;SDS011;32991;51.374;11.586;2024-03-08T11:42:46;31.67;;;25.50;;
47251;SDS011;32991;51.374;11.586;2024-03-08T11:45:15;33.50;;;25.67;;
47251;SDS011;32991;51.374;11.586;2024-03-08T11:47:44;31.90;;;26.42;;
47251;SDS011;32991;51.374;11.586;2024-03-08T11:50:14;31.80;;;25.48;;
47251;SDS011;32991;51.374;11.586;2024-03-08T11:52:41;31.10;;;25.70;;
47251;SDS011;32991;51.374;11.586;2024-03-08T11:55:09;31.58;;;24.52;;
47251;SDS011;32991;51.374;11.586;2024-03-08T11:57:39;32.47;;;25.30;;
47251;SDS011;32991;51.374;11.586;2024-03-08T12:00:06;32.75;;;24.80;;
47251;SDS011;32991;51.374;11.586;2024-03-08T12:02:34;30.92;;;24.35;;
47251;SDS011;32991;51.374;11.586;2024-03-08T12:05:09;33.08;;;25.75;;
47251;SDS011;32991;51.374;11.586;2024-03-08T12:07:42;30.10;;;25.15;;
47251;SDS011;32991;51.374;11.586;2024-03-08T12:10:19;32.65;;;24.30;;
47251;SDS011;32991;51.374;11.586;2024-03-08T12:12:52;33.72;;;25.65;;
47251;SDS011;32991;51.374;11.586;2024-03-08T12:15:19;30.55;;;23.88;;
47251;SDS011;32991;51.374;11.586;2024-03-08T12:17:48;32.38;;;24.83;;
47251;SDS011;32991;51.374;11.586;2024-03-08T12:20:22;32.10;;;24.88;;
47251;SDS011;32991;51.374;11.586;2024-03-08T12:22:55;32.35;;;24.60;;
47251;SDS011;32991;51.374;11.586;2024-03-08T12:25:31;28.95;;;23.58;;
47251;SDS011;32991;51.374;11.586;2024-03-08T12:28:11;28.85;;;22.75;;
47251;SDS011;32991;51.374;11.586;2024-03-08T12:33:13;28.27;;;22.40;;
47251;SDS011;32991;51.374;11.586;2024-03-08T12:35:40;28.20;;;23.48;;
47251;SDS011;32991;51.374;11.586;2024-03-08T12:38:08;30.13;;;23.25;;
47251;SDS011;32991;51.374;11.586;2024-03-08T12:40:35;27.95;;;22.92;;
47251;SDS011;32991;51.374;11.586;2024-03-08T12:43:07;30.08;;;23.65;;
47251;SDS011;32991;51.374;11.586;2024-03-08T12:45:33;28.20;;;22.73;;
47251;SDS011;32991;51.374;11.586;2024-03-08T12:48:00;32.03;;;24.35;;
47251;SDS011;32991;51.374;11.586;2024-03-08T12:50:27;29.58;;;23.55;;
47251;SDS011;32991;51.374;11.586;2024-03-08T12:52:53;29.10;;;23.50;;
47251;SDS011;32991;51.374;11.586;2024-03-08T12:55:20;29.33;;;24.73;;
47251;SDS011;32991;51.374;11.586;2024-03-08T12:57:47;30.45;;;25.08;;
47251;SDS011;32991;51.374;11.586;2024-03-08T13:00:15;30.77;;;24.42;;
47251;SDS011;32991;51.374;11.586;2024-03-08T13:02:50;30.83;;;24.92;;
47251;SDS011;32991;51.374;11.586;2024-03-08T13:05:18;29.90;;;23.58;;
47251;SDS011;32991;51.374;11.586;2024-03-08T13:07:44;30.35;;;24.77;;
47251;SDS011;32991;51.374;11.586;2024-03-08T13:10:13;32.50;;;23.50;;
47251;SDS011;32991;51.374;11.586;2024-03-08T13:12:44;33.78;;;25.85;;
47251;SDS011;32991;51.374;11.586;2024-03-08T13:15:11;31.40;;;24.92;;
47251;SDS011;32991;51.374;11.586;2024-03-08T13:17:42;28.77;;;25.08;;
47251;SDS011;32991;51.374;11.586;2024-03-08T13:20:11;29.15;;;24.67;;
47251;SDS011;32991;51.374;11.586;2024-03-08T13:22:47;34.50;;;24.63;;
47251;SDS011;32991;51.374;11.586;2024-03-08T13:25:14;30.67;;;24.55;;
47251;SDS011;32991;51.374;11.586;2024-03-08T13:27:41;31.08;;;24.70;;
47251;SDS011;32991;51.374;11.586;2024-03-08T13:30:12;29.95;;;24.73;;
47251;SDS011;32991;51.374;11.586;2024-03-08T13:32:40;31.20;;;24.92;;
47251;SDS011;32991;51.374;11.586;2024-03-08T13:35:09;31.65;;;24.65;;
47251;SDS011;32991;51.374;11.586;2024-03-08T13:37:40;30.17;;;25.85;;
47251;SDS011;32991;51.374;11.586;2024-03-08T13:40:07;33.47;;;26.35;;
47251;SDS011;32991;51.374;11.586;2024-03-08T13:42:37;31.40;;;24.80;;
47251;SDS011;32991;51.374;11.586;2024-03-08T13:45:13;33.13;;;26.35;;
47251;SDS011;32991;51.374;11.586;2024-03-08T13:47:43;33.65;;;25.38;;
47251;SDS011;32991;51.374;11.586;2024-03-08T13:50:11;32.28;;;25.38;;
47251;SDS011;32991;51.374;11.586;2024-03-08T13:52:47;28.23;;;24.02;;
47251;SDS011;32991;51.374;11.586;2024-03-08T13:55:20;28.95;;;23.40;;
47251;SDS011;32991;51.374;11.586;2024-03-08T13:57:48;29.05;;;22.55;;
47251;SDS011;32991;51.374;11.586;2024-03-08T14:00:15;28.88;;;23.17;;
47251;SDS011;32991;51.374;11.586;2024-03-08T14:02:42;33.05;;;23.40;;
47251;SDS011;32991;51.374;11.586;2024-03-08T14:05:09;30.63;;;22.80;;
47251;SDS011;32991;51.374;11.586;2024-03-08T14:07:37;30.33;;;23.67;;
47251;SDS011;32991;51.374;11.586;2024-03-08T14:10:05;33.22;;;24.27;;
47251;SDS011;32991;51.374;11.586;2024-03-08T14:12:33;34.10;;;24.70;;
47251;SDS011;32991;51.374;11.586;2024-03-08T14:15:01;35.70;;;24.23;;
47251;SDS011;32991;51.374;11.586;2024-03-08T14:17:28;30.33;;;24.90;;
47251;SDS011;32991;51.374;11.586;2024-03-08T14:19:57;32.33;;;23.80;;
47251;SDS011;32991;51.374;11.586;2024-03-08T14:22:25;30.35;;;23.75;;
47251;SDS011;32991;51.374;11.586;2024-03-08T14:24:52;29.52;;;24.60;;